Audubon, IL

7:08 PM CDT on September 21, 2014 (GMT -0500)
APRSWXNET Hillsboro IL US | Change Station
CLOSE
Current Station
Personal Weather Station
Location: Butler, IL
Elevation: 623 ft
Nearby Weather Stations

Elev 623 ft 39.20 °N, 89.50 °W | Updated 38 minutes ago

Clear
Clear
67 °F
Feels Like 67 °F
N
2
Wind Variable Wind from NNW
Gusts 4.0 mph

Today
High -- | Low -- °F
--% Chance of Precip.
Yesterday
High -- | Low -- °F
Precip. -- in
6:44 AM 6:55 PM
Waning Crescent, 5% visible
Pressure 30.08 in
Visibility 10.0 miles
Clouds Clear
Dew Point 52 °F
Humidity 58%
Rainfall 0.03 in
Snow Depth Not available.
UV 0 out of 12
Pollen 5.80 out of 12
Air Quality Not available.
Flu Activity Not available.
METAR KTAZ 212355Z AUTO 34009KT 10SM CLR 17/10 A3008 RMK AO2

More Conditions Fewer Conditions

Pressure 30.08 in
Visibility 10.0 miles
Clouds Clear
Dew Point 52 °F
Humidity 58%
Rainfall 0.03 in
Snow Depth Not available.
UV 0 out of 12
Pollen 5.80 out of 12
Air Quality Not available.
Flu Activity Not available.
METAR KTAZ 212355Z AUTO 34009KT 10SM CLR 17/10 A3008 RMK AO2

More Conditions Fewer Conditions

10-Day Weather Forecast

Almanac

Astronomy

Sep. 21, 2014 Rise Set
Actual Time 6:44 AM CDT 6:55 PM CDT
Civil Twilight 6:17 AM CDT 7:22 PM CDT
Nautical Twilight 5:45 AM CDT 7:53 PM CDT
Astronomical Twilight 5:13 AM CDT 8:25 PM CDT
Moon 4:18 AM CDT (9/21) 5:31 PM CDT (9/21)
Length of Visible Light 13h 05m
Length of Day
12h 11m
Tomorrow will be 2m 33s shorter.
Waning Crescent, 5% of the Moon is Illuminated
Today
Waning Crescent
Sep 24
New
Oct 1
First Quarter
Oct 8
Full
Oct 15
Last Quarter

Today's Extremes

State Highs State Lows

Community

WunderPhotos

Upload Photos

1,755,309 photos uploaded!

WunderBlogs® & News

Nearby

Snow Depth

Station Depth Elevation
No new snow has been reported.

Earthquake Activity

City Distance Mag. Time & Date
No recent earthquake activity has been reported nearby.
Minimum magnitude displayed is 2.5.

Coastal Water Temperatures

Place Temperature
No Stations Reporting

Nearby Weather Stations